Time;durP1;ratioP1;P1;durP2;ratioP2;P2;SDS_P1;SDS_P2;PMS_P1;PMS_P2;Temp;Humidity;BMP_temperature;BMP_pressure;BME280_temperature;BME280_humidity;BME280_pressure;Samples;Min_cycle;Max_cycle;Signal;HPM_P1;HPM_P2
2021/03/28 00:00:53;;;;;;;22.27;4.68;;;8.30;59.80;;;;;;4903192;29;20051;-61
2021/03/28 00:03:27;;;;;;;16.05;4.32;;;8.40;59.70;;;;;;4907867;28;20044;-62
2021/03/28 00:06:24;;;;;;;28.08;5.05;;;8.40;59.60;;;;;;4901910;28;20647;-61
2021/03/28 00:09:10;;;;;;;19.55;4.97;;;8.40;59.60;;;;;;4901318;28;20116;-60
2021/03/28 00:11:50;;;;;;;23.27;4.30;;;8.50;59.60;;;;;;4918667;28;20071;-60
2021/03/28 00:14:23;;;;;;;30.95;5.10;;;8.50;59.50;;;;;;4914469;28;20036;-61
2021/03/28 00:16:52;;;;;;;31.15;5.57;;;8.50;59.50;;;;;;4911766;28;20063;-60
2021/03/28 00:19:33;;;;;;;26.45;4.72;;;8.50;59.40;;;;;;4917976;28;20039;-61
2021/03/28 00:22:01;;;;;;;14.93;3.92;;;8.50;59.30;;;;;;4915776;29;20134;-61
2021/03/28 00:24:40;;;;;;;18.85;4.55;;;8.50;59.20;;;;;;4917475;29;20032;-60
2021/03/28 00:27:21;;;;;;;15.82;4.45;;;8.50;59.00;;;;;;4923667;28;20131;-60
2021/03/28 00:29:59;;;;;;;18.13;4.25;;;8.50;58.90;;;;;;4908996;28;20039;-61
2021/03/28 00:32:46;;;;;;;20.63;4.60;;;8.50;58.90;;;;;;4915510;28;20043;-60
2021/03/28 00:35:18;;;;;;;22.70;4.70;;;8.50;58.90;;;;;;4911799;28;20058;-60
2021/03/28 00:37:49;;;;;;;18.55;4.50;;;8.50;58.90;;;;;;4907787;28;20131;-61
2021/03/28 00:40:21;;;;;;;15.82;4.68;;;8.50;58.80;;;;;;4906037;28;20411;-61
2021/03/28 00:42:51;;;;;;;25.38;4.57;;;8.50;58.80;;;;;;4909200;29;20524;-61
2021/03/28 00:45:28;;;;;;;23.83;4.63;;;8.50;58.80;;;;;;4910389;28;20046;-61
2021/03/28 00:48:24;;;;;;;15.90;4.68;;;8.50;58.60;;;;;;4915833;28;20043;-61
2021/03/28 00:51:16;;;;;;;22.20;5.35;;;8.50;58.60;;;;;;4917051;28;20414;-61
2021/03/28 00:53:55;;;;;;;26.35;4.80;;;8.50;58.60;;;;;;4902618;28;20115;-60
2021/03/28 00:56:42;;;;;;;20.05;4.85;;;8.50;58.70;;;;;;4902964;28;20033;-59
2021/03/28 00:59:36;;;;;;;20.70;4.88;;;8.50;58.80;;;;;;4907490;28;20530;-60
2021/03/28 01:02:14;;;;;;;22.67;4.82;;;8.50;58.80;;;;;;4908114;28;20054;-60
2021/03/28 01:04:55;;;;;;;23.67;5.32;;;8.50;58.80;;;;;;4907028;28;22159;-61
2021/03/28 01:07:35;;;;;;;14.32;4.05;;;8.50;58.60;;;;;;4922947;28;20095;-60
2021/03/28 01:10:06;;;;;;;20.90;5.10;;;8.60;59.20;;;;;;4908790;28;20035;-60
2021/03/28 01:13:29;;;;;;;22.88;4.72;;;8.60;58.60;;;;;;4896077;28;20122;-61
2021/03/28 01:16:41;;;;;;;22.55;5.28;;;8.60;58.60;;;;;;4870535;29;20056;-60
2021/03/28 01:19:28;;;;;;;29.98;4.60;;;8.60;58.60;;;;;;4896308;29;20051;-61
2021/03/28 01:22:09;;;;;;;20.10;4.75;;;8.70;58.50;;;;;;4907440;29;20477;-60
2021/03/28 01:24:54;;;;;;;20.50;4.30;;;8.70;58.40;;;;;;4903867;29;20044;-60
2021/03/28 01:27:23;;;;;;;20.55;4.78;;;8.70;58.40;;;;;;4920175;28;20514;-60
2021/03/28 01:29:58;;;;;;;15.40;4.28;;;8.70;58.50;;;;;;4909225;28;20067;-60
2021/03/28 01:32:28;;;;;;;13.18;4.15;;;8.70;58.50;;;;;;4901716;28;20040;-61
2021/03/28 01:35:14;;;;;;;14.55;4.68;;;8.70;58.30;;;;;;4912835;28;20044;-60
2021/03/28 01:38:17;;;;;;;16.27;4.20;;;8.70;58.20;;;;;;4904970;28;20036;-58
2021/03/28 01:40:53;;;;;;;26.63;5.10;;;8.70;58.10;;;;;;4901840;28;20145;-61
2021/03/28 01:43:56;;;;;;;14.07;3.95;;;8.70;58.10;;;;;;4904629;28;20044;-60
2021/03/28 01:46:45;;;;;;;13.13;3.95;;;8.70;58.20;;;;;;4924412;28;20118;-61
2021/03/28 01:49:35;;;;;;;18.42;4.40;;;8.70;58.20;;;;;;4911637;28;20091;-62
2021/03/28 01:52:53;;;;;;;15.40;4.45;;;8.60;58.20;;;;;;4902318;28;20563;-60
2021/03/28 01:55:54;;;;;;;21.05;5.25;;;8.60;58.30;;;;;;4850961;29;20232;-60
2021/03/28 01:58:57;;;;;;;13.38;3.85;;;8.60;58.30;;;;;;4902194;28;21200;-59
2021/03/28 02:01:49;;;;;;;12.35;4.20;;;8.70;58.30;;;;;;4903338;28;20075;-60
2021/03/28 02:04:48;;;;;;;26.52;4.35;;;8.60;58.30;;;;;;4916794;28;20162;-61
2021/03/28 02:07:41;;;;;;;19.27;3.90;;;8.60;58.20;;;;;;4906898;28;20171;-60
2021/03/28 02:10:21;;;;;;;14.45;4.00;;;8.60;58.20;;;;;;4900012;28;20405;-60
2021/03/28 02:12:58;;;;;;;20.75;5.18;;;8.60;58.10;;;;;;4905922;29;20044;-60
2021/03/28 02:15:40;;;;;;;14.02;3.80;;;8.60;58.10;;;;;;4909219;28;20095;-59
2021/03/28 02:18:48;;;;;;;22.42;4.57;;;8.60;58.10;;;;;;4908957;28;20084;-60
2021/03/28 02:21:41;;;;;;;19.55;4.40;;;8.60;58.00;;;;;;4891207;29;20708;-61
2021/03/28 02:24:41;;;;;;;16.05;4.70;;;8.60;58.00;;;;;;4910706;28;20436;-61
2021/03/28 02:27:38;;;;;;;11.50;4.20;;;8.60;58.00;;;;;;4907920;28;20033;-60
2021/03/28 02:30:21;;;;;;;16.92;4.88;;;8.60;58.00;;;;;;4902172;28;20498;-60
2021/03/28 02:33:24;;;;;;;17.73;5.38;;;8.60;58.00;;;;;;4905879;28;20048;-60
2021/03/28 02:35:56;;;;;;;22.63;5.20;;;8.60;57.90;;;;;;4909465;28;20028;-60
2021/03/28 02:38:42;;;;;;;18.17;4.95;;;8.60;58.00;;;;;;4905744;28;20051;-60
2021/03/28 02:41:14;;;;;;;28.98;5.50;;;8.60;58.00;;;;;;4905635;28;20043;-61
2021/03/28 02:44:10;;;;;;;15.93;4.97;;;8.60;58.00;;;;;;4944906;23;20062;-61
2021/03/28 02:47:09;;;;;;;15.60;5.00;;;8.60;58.00;;;;;;4909808;28;24301;-62
2021/03/28 02:49:45;;;;;;;24.30;5.55;;;8.60;58.00;;;;;;4908770;28;20047;-62
2021/03/28 02:52:30;;;;;;;17.95;5.57;;;8.60;58.10;;;;;;4904672;28;20036;-62
2021/03/28 02:55:19;;;;;;;21.33;5.32;;;8.70;58.10;;;;;;4913407;28;20036;-61
2021/03/28 02:58:22;;;;;;;18.48;4.88;;;8.70;58.10;;;;;;4903849;28;20493;-62
2021/03/28 03:01:29;;;;;;;22.02;5.03;;;8.70;58.10;;;;;;4921868;28;20107;-62
2021/03/28 03:04:00;;;;;;;18.38;5.20;;;8.80;58.10;;;;;;4910264;28;20039;-62
2021/03/28 03:07:23;;;;;;;26.48;5.38;;;8.80;58.10;;;;;;4905700;28;20122;-62
2021/03/28 03:10:08;;;;;;;23.38;5.25;;;8.90;58.10;;;;;;4861907;29;20033;-62
2021/03/28 03:12:51;;;;;;;22.95;5.38;;;8.90;58.00;;;;;;4869766;29;20127;-62
2021/03/28 03:15:25;;;;;;;21.80;5.18;;;8.90;58.00;;;;;;4893889;28;20051;-62
2021/03/28 03:18:12;;;;;;;28.30;6.35;;;9.00;58.00;;;;;;4911523;28;20054;-62
2021/03/28 03:21:07;;;;;;;23.63;5.45;;;9.00;57.90;;;;;;4914765;28;20054;-62
2021/03/28 03:23:51;;;;;;;22.27;5.65;;;9.00;57.90;;;;;;4904256;28;20127;-62
2021/03/28 03:26:49;;;;;;;17.23;5.00;;;9.10;57.80;;;;;;4901052;28;20047;-62
2021/03/28 03:29:57;;;;;;;23.48;5.15;;;9.10;57.80;;;;;;4909239;28;20047;-62
2021/03/28 03:32:51;;;;;;;17.55;4.72;;;9.10;57.70;;;;;;4914951;28;20035;-62
2021/03/28 03:35:38;;;;;;;18.95;5.22;;;9.10;57.70;;;;;;4912538;28;20525;-61
2021/03/28 03:38:15;;;;;;;20.40;4.80;;;9.10;57.60;;;;;;4911377;28;20103;-62
2021/03/28 03:41:03;;;;;;;18.10;5.18;;;9.20;57.70;;;;;;4909404;28;20056;-62
2021/03/28 03:43:47;;;;;;;23.52;5.30;;;9.20;57.60;;;;;;4904570;28;20123;-62
2021/03/28 03:46:15;;;;;;;26.98;5.82;;;9.20;57.60;;;;;;4911434;28;20028;-62
2021/03/28 03:49:18;;;;;;;17.02;5.30;;;9.20;57.50;;;;;;4912827;28;24168;-62
2021/03/28 03:54:37;;;;;;;18.67;5.13;;;9.20;57.40;;;;;;4910815;28;20047;-62
2021/03/28 03:57:15;;;;;;;22.73;5.30;;;9.20;57.30;;;;;;4928475;28;20046;-63
2021/03/28 04:00:02;;;;;;;18.88;4.70;;;9.20;57.30;;;;;;4920944;28;20094;-63
2021/03/28 04:02:54;;;;;;;19.30;4.65;;;9.20;57.30;;;;;;4914952;28;20051;-63
2021/03/28 04:06:01;;;;;;;18.98;4.32;;;9.20;57.30;;;;;;4911958;28;20055;-63
2021/03/28 04:08:42;;;;;;;21.80;5.63;;;9.20;57.20;;;;;;4912281;28;20078;-63
2021/03/28 04:11:37;;;;;;;17.05;4.65;;;9.20;57.20;;;;;;4909383;28;20478;-63
2021/03/28 04:14:19;;;;;;;19.65;5.47;;;9.20;57.20;;;;;;4909033;28;20046;-63
2021/03/28 04:17:13;;;;;;;18.95;5.22;;;9.10;57.10;;;;;;4922454;28;20040;-63
2021/03/28 04:19:45;;;;;;;14.80;4.22;;;9.10;57.20;;;;;;4913301;28;20837;-62
2021/03/28 04:22:44;;;;;;;17.77;4.85;;;9.10;57.20;;;;;;4911640;28;20077;-63
2021/03/28 04:25:29;;;;;;;17.58;5.00;;;9.10;57.20;;;;;;4915482;29;20036;-62
2021/03/28 04:28:21;;;;;;;22.75;5.68;;;9.10;57.20;;;;;;4916798;29;20028;-62
2021/03/28 04:30:58;;;;;;;21.27;5.10;;;9.10;57.20;;;;;;4918436;29;20059;-63
2021/03/28 04:33:52;;;;;;;20.35;4.88;;;9.00;57.20;;;;;;4917460;28;20060;-62
2021/03/28 04:36:22;;;;;;;16.63;4.63;;;9.00;57.10;;;;;;4920368;28;20564;-62
2021/03/28 04:39:09;;;;;;;19.77;4.55;;;9.00;57.20;;;;;;4912892;28;20545;-63
2021/03/28 04:42:01;;;;;;;18.27;4.50;;;9.00;57.20;;;;;;4913315;28;20676;-62
2021/03/28 04:44:48;;;;;;;20.85;4.65;;;9.00;57.20;;;;;;4907736;29;20126;-63
2021/03/28 04:47:32;;;;;;;25.70;6.07;;;9.00;57.20;;;;;;4917573;28;20098;-63
2021/03/28 04:50:18;;;;;;;17.50;4.90;;;9.00;57.10;;;;;;4913811;28;20453;-62
2021/03/28 04:53:03;;;;;;;22.83;5.03;;;8.90;57.10;;;;;;4908454;28;20973;-63
2021/03/28 04:56:09;;;;;;;28.33;5.63;;;8.90;57.20;;;;;;4913530;28;20074;-63
2021/03/28 04:58:52;;;;;;;17.85;4.60;;;8.90;57.30;;;;;;4915914;28;20135;-63
2021/03/28 05:01:41;;;;;;;25.73;5.53;;;8.90;57.40;;;;;;4916902;28;20040;-63
2021/03/28 05:04:31;;;;;;;27.42;5.80;;;8.90;57.50;;;;;;4920181;28;20040;-63
2021/03/28 05:07:35;;;;;;;14.43;4.63;;;8.90;57.50;;;;;;4910053;29;20043;-63
2021/03/28 05:10:31;;;;;;;22.48;5.88;;;8.90;57.50;;;;;;4917863;28;20031;-64
2021/03/28 05:13:20;;;;;;;18.20;4.80;;;9.00;57.40;;;;;;4917686;29;20031;-62
2021/03/28 05:16:14;;;;;;;18.30;5.18;;;9.00;57.30;;;;;;4915599;29;20046;-63
2021/03/28 05:19:03;;;;;;;20.92;5.15;;;9.00;57.40;;;;;;4913034;29;20126;-63
2021/03/28 05:21:54;;;;;;;18.02;4.97;;;9.00;57.30;;;;;;4912658;29;20123;-63
2021/03/28 05:24:47;;;;;;;21.05;5.68;;;9.00;57.20;;;;;;4912714;28;20044;-62
2021/03/28 05:27:53;;;;;;;21.67;5.30;;;9.00;57.20;;;;;;4910652;29;20053;-63
2021/03/28 05:30:55;;;;;;;19.88;5.43;;;9.00;57.30;;;;;;4917068;29;20036;-63
2021/03/28 05:33:46;;;;;;;26.45;4.85;;;9.00;57.40;;;;;;4920214;28;20405;-63
2021/03/28 05:36:30;;;;;;;14.48;4.93;;;9.10;57.60;;;;;;4912395;28;20036;-62
2021/03/28 05:39:15;;;;;;;12.32;4.60;;;9.10;57.60;;;;;;4918854;28;20039;-63
2021/03/28 05:41:40;;;;;;;20.10;5.18;;;9.10;57.60;;;;;;4922324;28;20046;-63
2021/03/28 05:44:20;;;;;;;18.75;5.03;;;9.20;57.60;;;;;;4915460;28;20032;-64
2021/03/28 05:47:07;;;;;;;23.17;5.40;;;9.30;57.60;;;;;;4918817;29;20059;-63
2021/03/28 05:50:00;;;;;;;14.23;4.40;;;9.30;57.50;;;;;;4922132;28;20094;-63
2021/03/28 05:52:47;;;;;;;19.15;5.50;;;9.40;57.50;;;;;;4916018;28;20079;-63
2021/03/28 05:55:33;;;;;;;15.23;4.82;;;9.40;57.50;;;;;;4916708;28;20560;-62
2021/03/28 05:58:36;;;;;;;26.08;5.68;;;9.50;57.50;;;;;;4923345;28;20717;-63
2021/03/28 06:01:26;;;;;;;25.65;5.70;;;9.60;57.60;;;;;;4916225;28;20030;-62
2021/03/28 06:04:15;;;;;;;22.33;4.82;;;9.70;57.60;;;;;;4915564;28;20158;-63
2021/03/28 06:07:08;;;;;;;19.55;4.63;;;9.70;57.40;;;;;;4913947;29;20554;-63
2021/03/28 06:10:05;;;;;;;23.35;5.25;;;9.80;57.20;;;;;;4916757;28;20044;-63
2021/03/28 06:12:43;;;;;;;15.50;4.63;;;9.80;56.90;;;;;;4918660;29;20032;-63
2021/03/28 06:15:26;;;;;;;14.40;4.78;;;9.70;56.80;;;;;;4929972;28;20374;-63
2021/03/28 06:18:13;;;;;;;17.55;5.13;;;9.70;56.90;;;;;;4920984;29;20031;-62
2021/03/28 06:21:10;;;;;;;21.98;4.93;;;9.70;57.10;;;;;;4915725;28;20040;-63
2021/03/28 06:24:22;;;;;;;21.70;5.03;;;9.80;57.20;;;;;;4907809;28;20048;-62
2021/03/28 06:27:31;;;;;;;20.33;4.95;;;9.90;57.20;;;;;;4912655;29;20039;-63
2021/03/28 06:30:24;;;;;;;11.02;3.92;;;9.90;57.20;;;;;;4912133;28;20494;-63
2021/03/28 06:33:21;;;;;;;15.15;5.07;;;10.00;57.20;;;;;;4908906;28;20050;-63
2021/03/28 06:36:25;;;;;;;12.52;5.60;;;10.00;57.20;;;;;;4875669;29;20040;-63
2021/03/28 06:38:56;;;;;;;16.52;5.20;;;10.20;57.30;;;;;;4918198;29;20046;-63
2021/03/28 06:41:51;;;;;;;21.63;4.75;;;10.30;57.20;;;;;;4914782;29;21258;-63
2021/03/28 06:44:44;;;;;;;15.18;4.80;;;10.40;57.20;;;;;;4915668;28;20079;-62
2021/03/28 06:47:27;;;;;;;18.10;4.85;;;10.50;57.10;;;;;;4914169;29;20398;-62
2021/03/28 06:50:16;;;;;;;19.40;4.57;;;10.70;57.00;;;;;;4916159;28;20032;-62
2021/03/28 06:53:15;;;;;;;20.15;5.10;;;10.80;56.90;;;;;;4909210;29;22577;-63
2021/03/28 06:55:43;;;;;;;21.08;5.40;;;10.90;56.90;;;;;;4925196;28;20469;-62
2021/03/28 06:58:30;;;;;;;25.00;5.05;;;;;;;;;;4918622;28;20091;-63
2021/03/28 07:01:16;;;;;;;17.45;4.38;;;11.10;56.80;;;;;;4920464;28;20234;-63
2021/03/28 07:03:54;;;;;;;13.48;4.38;;;11.50;56.80;;;;;;4922657;28;20514;-63
2021/03/28 07:06:38;;;;;;;20.45;4.70;;;11.60;56.00;;;;;;4913961;28;20153;-63
2021/03/28 07:09:33;;;;;;;20.17;4.25;;;11.60;55.80;;;;;;4924688;28;20155;-63
2021/03/28 07:12:13;;;;;;;15.98;4.88;;;11.70;55.90;;;;;;4921879;28;20475;-63
2021/03/28 07:15:14;;;;;;;18.17;4.85;;;11.70;55.70;;;;;;4920518;28;20044;-63
2021/03/28 07:18:16;;;;;;;22.40;4.78;;;11.80;55.80;;;;;;4918760;28;20047;-63
2021/03/28 07:21:19;;;;;;;18.45;5.22;;;11.90;55.80;;;;;;4920798;28;20059;-63
2021/03/28 07:24:11;;;;;;;19.35;4.20;;;12.10;55.90;;;;;;4922864;28;20053;-63
2021/03/28 07:27:06;;;;;;;21.30;4.18;;;12.30;55.60;;;;;;4921314;28;20039;-64
2021/03/28 07:29:53;;;;;;;16.55;4.43;;;12.40;55.30;;;;;;4923535;28;20036;-64
2021/03/28 07:32:40;;;;;;;20.80;4.75;;;12.60;55.30;;;;;;4928345;28;20055;-64
2021/03/28 07:35:39;;;;;;;17.15;4.55;;;;;;;;;;4915625;28;20456;-63
2021/03/28 07:38:23;;;;;;;14.25;4.05;;;;;;;;;;4900902;28;20042;-64
2021/03/28 07:41:32;;;;;;;15.95;3.63;;;12.80;55.30;;;;;;4928030;29;20104;-63
2021/03/28 07:44:43;;;;;;;17.52;3.28;;;13.20;53.90;;;;;;4911029;29;20123;-63
2021/03/28 07:47:38;;;;;;;10.95;4.07;;;13.20;53.90;;;;;;4914865;28;20040;-63
2021/03/28 07:50:23;;;;;;;16.50;3.97;;;;;;;;;;4925705;28;20039;-63
2021/03/28 07:53:08;;;;;;;24.75;4.50;;;13.20;53.40;;;;;;4918835;29;20117;-63
2021/03/28 07:55:38;;;;;;;19.50;4.07;;;13.30;53.50;;;;;;4917960;29;20494;-63
2021/03/28 07:58:34;;;;;;;22.35;4.60;;;13.30;53.20;;;;;;4926276;28;20036;-63
2021/03/28 08:01:15;;;;;;;11.57;3.95;;;13.30;53.20;;;;;;4920327;28;20035;-63
2021/03/28 08:04:13;;;;;;;13.00;3.90;;;13.20;54.20;;;;;;4922130;28;20040;-64
2021/03/28 08:07:16;;;;;;;17.73;3.58;;;13.20;53.90;;;;;;4929101;28;20170;-64
2021/03/28 08:10:18;;;;;;;12.07;3.50;;;13.30;54.00;;;;;;4897116;29;20057;-64
2021/03/28 08:13:08;;;;;;;17.40;3.50;;;;;;;;;;4928445;28;20353;-64
2021/03/28 08:16:13;;;;;;;14.77;3.22;;;13.40;53.80;;;;;;4923136;28;20043;-63
2021/03/28 08:18:57;;;;;;;12.27;3.13;;;;;;;;;;4923258;28;20036;-63
2021/03/28 08:21:39;;;;;;;15.20;3.17;;;13.70;53.90;;;;;;4925432;29;20375;-63
2021/03/28 08:24:23;;;;;;;19.35;4.00;;;;;;;;;;4923970;28;20046;-64
2021/03/28 08:26:49;;;;;;;15.32;3.17;;;;;;;;;;4922737;28;20061;-64
2021/03/28 08:29:34;;;;;;;14.73;3.72;;;15.30;53.60;;;;;;4923083;28;20064;-63
2021/03/28 08:32:16;;;;;;;12.88;2.83;;;16.20;50.40;;;;;;4918257;29;20036;-64
2021/03/28 08:35:14;;;;;;;13.85;3.10;;;;;;;;;;4914431;29;20094;-64
2021/03/28 08:38:05;;;;;;;9.73;3.13;;;16.00;49.90;;;;;;4911377;29;20040;-64
2021/03/28 08:41:12;;;;;;;8.65;2.72;;;15.90;49.40;;;;;;4923125;28;20047;-63
2021/03/28 08:44:05;;;;;;;12.07;3.38;;;15.90;50.10;;;;;;4906295;28;20087;-63
2021/03/28 08:46:43;;;;;;;12.52;3.15;;;;;;;;;;4915359;28;20040;-64
2021/03/28 08:49:29;;;;;;;14.35;4.07;;;;;;;;;;4916499;28;20091;-64
2021/03/28 08:52:09;;;;;;;12.95;2.97;;;;;;;;;;4916903;29;20120;-64
2021/03/28 08:54:35;;;;;;;12.05;2.75;;;;;;;;;;4909880;28;20051;-64
2021/03/28 08:57:04;;;;;;;14.50;3.08;;;;;;;;;;4921412;28;20383;-63
2021/03/28 08:59:39;;;;;;;11.50;2.92;;;;;;;;;;4922933;28;20042;-64
2021/03/28 09:02:08;;;;;;;10.80;2.95;;;;;;;;;;4937937;28;20122;-64
2021/03/28 09:04:49;;;;;;;15.32;2.88;;;;;;;;;;4919537;28;20071;-64
2021/03/28 09:07:33;;;;;;;9.98;2.47;;;;;;;;;;4923058;28;20126;-65
2021/03/28 09:10:08;;;;;;;7.00;2.45;;;;;;;;;;4921184;28;20718;-65
2021/03/28 09:12:54;;;;;;;10.20;2.30;;;;;;;;;;4924366;28;20044;-65
2021/03/28 09:15:44;;;;;;;10.00;2.70;;;;;;;;;;4918617;28;20034;-65
2021/03/28 09:18:27;;;;;;;12.55;2.83;;;;;;;;;;4918375;28;20035;-65
2021/03/28 09:21:05;;;;;;;10.45;2.42;;;;;;;;;;4917103;29;20039;-63
2021/03/28 09:23:34;;;;;;;10.27;2.85;;;;;;;;;;4922810;29;20059;-63
2021/03/28 09:26:02;;;;;;;9.68;2.55;;;;;;;;;;4922739;28;20458;-64
2021/03/28 09:28:31;;;;;;;14.35;2.67;;;;;;;;;;4917222;28;20078;-64
2021/03/28 09:31:03;;;;;;;11.48;2.05;;;;;;;;;;4917581;28;20036;-64
2021/03/28 09:33:38;;;;;;;11.15;2.60;;;;;;;;;;4913834;28;20497;-64
2021/03/28 09:36:10;;;;;;;7.57;2.38;;;;;;;;;;4913146;28;20131;-65
2021/03/28 09:38:48;;;;;;;11.10;2.47;;;;;;;;;;4917888;28;20036;-64
2021/03/28 09:41:32;;;;;;;9.80;2.70;;;;;;;;;;4912723;28;20042;-65
2021/03/28 09:44:01;;;;;;;9.82;2.78;;;;;;;;;;4917295;29;20058;-64
2021/03/28 09:46:27;;;;;;;11.43;2.53;;;;;;;;;;4922387;28;20036;-64
2021/03/28 09:49:11;;;;;;;7.38;2.55;;;;;;;;;;4915302;28;20043;-65
2021/03/28 09:54:45;;;;;;;9.73;2.17;;;;;;;;;;5016112;22;20498;-63
2021/03/28 09:57:16;;;;;;;7.85;2.42;;;;;;;;;;4991849;28;20027;-64
2021/03/28 10:00:16;;;;;;;15.15;2.83;;;16.50;50.20;;;;;;4983223;28;20047;-63
2021/03/28 10:03:13;;;;;;;7.93;2.60;;;18.40;43.40;;;;;;5001353;28;20605;-63
2021/03/28 10:05:40;;;;;;;10.13;2.70;;;;;;;;;;4975978;28;20034;-63
2021/03/28 10:08:19;;;;;;;14.68;2.58;;;18.20;43.80;;;;;;4978975;28;20061;-63
2021/03/28 10:11:05;;;;;;;8.73;2.28;;;;;;;;;;4966215;28;20042;-64
2021/03/28 10:13:39;;;;;;;11.55;2.08;;;;;;;;;;4976990;28;20649;-64
2021/03/28 10:16:08;;;;;;;12.32;2.40;;;;;;;;;;4970870;28;20160;-64
2021/03/28 10:18:45;;;;;;;12.18;3.00;;;;;;;;;;4969416;28;20061;-64
2021/03/28 10:21:20;;;;;;;10.88;2.35;;;;;;;;;;4972967;28;20038;-64
2021/03/28 10:24:04;;;;;;;5.18;1.90;;;;;;;;;;4974436;28;20046;-65
2021/03/28 10:26:30;;;;;;;15.15;2.42;;;;;;;;;;4976864;28;20050;-65
2021/03/28 10:29:04;;;;;;;12.90;2.35;;;;;;;;;;4975468;28;20050;-64
2021/03/28 10:31:56;;;;;;;9.45;2.10;;;;;;;;;;4978365;28;20043;-64
2021/03/28 10:34:58;;;;;;;9.70;2.25;;;;;;;;;;4960197;28;20292;-64
2021/03/28 10:37:32;;;;;;;10.65;2.63;;;;;;;;;;4951705;28;20038;-65
2021/03/28 10:40:17;;;;;;;7.28;2.00;;;;;;;;;;4976909;28;20074;-64
2021/03/28 10:43:01;;;;;;;16.80;2.25;;;;;;;;;;4976895;28;20449;-65
2021/03/28 10:45:28;;;;;;;9.75;1.90;;;;;;;;;;4982769;28;20047;-65
2021/03/28 10:48:24;;;;;;;11.25;2.00;;;;;;;;;;4991611;28;20634;-65
2021/03/28 10:51:02;;;;;;;9.40;2.55;;;;;;;;;;4978003;28;20069;-65
2021/03/28 10:53:43;;;;;;;9.25;2.40;;;19.60;40.10;;;;;;4985083;28;20047;-65
2021/03/28 10:56:15;;;;;;;9.05;2.50;;;;;;;;;;4984309;28;20042;-65
2021/03/28 10:58:59;;;;;;;7.63;2.20;;;;;;;;;;4976092;28;20061;-65
2021/03/28 11:01:25;;;;;;;4.85;1.92;;;;;;;;;;4983144;28;20042;-66
2021/03/28 11:04:21;;;;;;;10.93;2.28;;;19.00;41.20;;;;;;4984045;28;20042;-65
2021/03/28 11:07:05;;;;;;;12.60;2.63;;;18.40;41.10;;;;;;4970655;28;20665;-66
2021/03/28 11:09:49;;;;;;;7.80;2.20;;;18.10;42.10;;;;;;4968071;28;20105;-66
2021/03/28 11:12:48;;;;;;;14.40;2.47;;;17.90;42.50;;;;;;4964591;28;20116;-65
2021/03/28 11:15:43;;;;;;;7.15;2.25;;;17.70;43.10;;;;;;4959500;28;20039;-65
2021/03/28 11:18:33;;;;;;;7.35;2.30;;;17.50;43.10;;;;;;4968612;28;21126;-66
2021/03/28 11:21:29;;;;;;;6.65;2.35;;;17.40;43.20;;;;;;4971001;28;20033;-65
2021/03/28 11:23:59;;;;;;;9.02;2.60;;;;;;;;;;4962229;28;20887;-65
2021/03/28 11:26:43;;;;;;;11.55;2.63;;;;;;;;;;4966167;28;20042;-65
2021/03/28 11:29:09;;;;;;;6.85;2.40;;;;;;;;;;4971538;28;20493;-65
2021/03/28 11:31:56;;;;;;;15.85;2.75;;;;;;;;;;4968494;28;20062;-65
2021/03/28 11:34:24;;;;;;;7.40;2.13;;;;;;;;;;4962543;28;20053;-65
2021/03/28 11:36:58;;;;;;;12.13;3.13;;;;;;;;;;4967299;28;20042;-65
2021/03/28 11:39:27;;;;;;;10.10;2.47;;;;;;;;;;4969929;28;20641;-65
2021/03/28 11:41:56;;;;;;;8.25;2.65;;;;;;;;;;4965203;28;20585;-65
2021/03/28 11:44:24;;;;;;;9.00;2.72;;;;;;;;;;4959192;28;20058;-66
2021/03/28 11:46:50;;;;;;;10.45;2.70;;;;;;;;;;4966931;28;20484;-67
2021/03/28 11:49:17;;;;;;;9.60;2.60;;;;;;;;;;4970414;28;20030;-65
2021/03/28 11:52:03;;;;;;;13.25;2.70;;;;;;;;;;4968424;28;20043;-66
2021/03/28 11:54:30;;;;;;;11.82;3.22;;;;;;;;;;4962216;28;20049;-66
2021/03/28 11:57:14;;;;;;;11.95;3.15;;;;;;;;;;4963039;28;20043;-66
2021/03/28 11:59:53;;;;;;;12.90;2.90;;;17.30;43.40;;;;;;4973936;28;20045;-65
2021/03/28 12:02:28;;;;;;;8.07;2.85;;;16.60;45.90;;;;;;4969917;28;20503;-65
2021/03/28 12:04:57;;;;;;;8.25;2.30;;;16.50;46.20;;;;;;4967784;28;20181;-65
2021/03/28 12:07:45;;;;;;;14.00;3.10;;;16.40;46.60;;;;;;4967289;28;20559;-66
2021/03/28 12:10:10;;;;;;;12.30;3.42;;;16.30;47.20;;;;;;4966364;28;20479;-66
2021/03/28 12:12:48;;;;;;;10.50;3.22;;;16.20;47.40;;;;;;4969191;28;20046;-66
2021/03/28 12:15:44;;;;;;;11.63;3.22;;;16.10;47.90;;;;;;4960401;28;20583;-66
2021/03/28 12:18:14;;;;;;;8.13;2.70;;;16.10;48.30;;;;;;4957007;28;20081;-65
2021/03/28 12:20:40;;;;;;;10.65;2.83;;;16.00;48.60;;;;;;4986150;28;20178;-64
2021/03/28 12:23:23;;;;;;;11.27;2.88;;;15.90;48.80;;;;;;4967672;28;20043;-65
2021/03/28 12:26:22;;;;;;;10.95;2.97;;;15.90;49.40;;;;;;4961300;28;20065;-64
2021/03/28 12:29:02;;;;;;;9.48;3.25;;;15.80;49.70;;;;;;4960762;28;20125;-64
2021/03/28 12:31:38;;;;;;;8.75;3.03;;;15.80;50.10;;;;;;4966964;28;20149;-64
2021/03/28 12:34:36;;;;;;;9.57;3.40;;;15.80;50.60;;;;;;4967385;28;20046;-64
2021/03/28 12:37:23;;;;;;;15.15;3.78;;;15.80;50.80;;;;;;4950532;28;20400;-65
2021/03/28 12:39:49;;;;;;;9.77;3.38;;;15.80;51.30;;;;;;4964695;28;20042;-66
2021/03/28 12:42:28;;;;;;;11.68;3.55;;;15.80;51.50;;;;;;4963972;28;20515;-67
2021/03/28 12:45:09;;;;;;;10.13;3.22;;;15.80;51.80;;;;;;4966933;28;20129;-65
2021/03/28 12:47:47;;;;;;;10.43;3.85;;;15.70;51.80;;;;;;4958963;28;20863;-62
2021/03/28 12:50:15;;;;;;;13.52;3.72;;;15.70;52.20;;;;;;4962638;28;20069;-63
2021/03/28 12:53:07;;;;;;;12.30;3.42;;;15.70;52.50;;;;;;4960868;28;20497;-63
2021/03/28 12:55:44;;;;;;;10.10;3.55;;;15.60;52.90;;;;;;4945004;28;20074;-63
2021/03/28 12:58:10;;;;;;;13.73;3.67;;;15.60;53.00;;;;;;4950115;28;20038;-63
2021/03/28 13:00:50;;;;;;;12.45;3.25;;;15.60;52.90;;;;;;4954999;28;20117;-63
2021/03/28 13:03:27;;;;;;;11.05;3.38;;;15.60;52.90;;;;;;4962609;28;20046;-64
2021/03/28 13:06:37;;;;;;;10.48;3.60;;;15.50;53.10;;;;;;4956728;28;20518;-63
2021/03/28 13:09:11;;;;;;;11.55;3.80;;;15.50;53.20;;;;;;4953054;28;20063;-65
2021/03/28 13:11:56;;;;;;;14.82;3.53;;;15.50;53.40;;;;;;4952617;28;20046;-67
2021/03/28 13:14:28;;;;;;;10.80;3.85;;;15.50;53.60;;;;;;4952759;28;20061;-64
2021/03/28 13:17:13;;;;;;;14.68;3.88;;;15.50;53.70;;;;;;4957705;28;20065;-64
2021/03/28 13:19:48;;;;;;;11.15;3.53;;;15.50;54.50;;;;;;4947507;28;20105;-63
2021/03/28 13:22:38;;;;;;;9.93;3.33;;;15.50;54.60;;;;;;4957549;28;20042;-63
2021/03/28 13:25:27;;;;;;;13.75;3.75;;;15.50;53.80;;;;;;4954032;28;20405;-63
2021/03/28 13:28:11;;;;;;;6.43;3.63;;;15.60;54.00;;;;;;4955129;28;20042;-64
2021/03/28 13:30:48;;;;;;;11.18;3.30;;;15.60;53.90;;;;;;4953197;28;20702;-65
2021/03/28 13:33:36;;;;;;;12.48;3.42;;;15.50;53.80;;;;;;4952532;28;20392;-66
2021/03/28 13:36:22;;;;;;;9.55;3.63;;;15.40;53.80;;;;;;4964148;28;20609;-68
2021/03/28 13:39:03;;;;;;;16.75;4.13;;;15.40;54.00;;;;;;4958031;28;20042;-65
2021/03/28 13:41:33;;;;;;;10.40;3.83;;;15.30;54.10;;;;;;4952657;28;20039;-65
2021/03/28 13:44:17;;;;;;;11.80;3.30;;;15.20;54.10;;;;;;4955378;28;20034;-65
2021/03/28 13:46:51;;;;;;;15.95;3.58;;;15.20;54.20;;;;;;4954725;28;20401;-65
2021/03/28 13:49:43;;;;;;;13.50;3.80;;;15.10;54.40;;;;;;4947720;28;20062;-65
2021/03/28 13:52:25;;;;;;;11.05;3.45;;;15.00;54.60;;;;;;4947537;28;20634;-65
2021/03/28 13:55:11;;;;;;;11.13;3.50;;;15.00;54.90;;;;;;4956008;28;20672;-65
2021/03/28 13:57:44;;;;;;;10.30;3.60;;;15.00;54.80;;;;;;4940226;28;20299;-64
2021/03/28 14:00:51;;;;;;;9.10;3.38;;;14.90;54.90;;;;;;4958228;28;20038;-65
2021/03/28 14:03:37;;;;;;;15.00;3.72;;;14.90;55.00;;;;;;4940624;28;20065;-64
2021/03/28 14:06:27;;;;;;;11.15;3.42;;;14.80;55.00;;;;;;4946544;28;20039;-66
2021/03/28 14:09:27;;;;;;;15.13;3.90;;;14.80;55.20;;;;;;4950885;28;20042;-64
2021/03/28 14:11:59;;;;;;;9.07;3.20;;;14.70;55.20;;;;;;4949957;28;20061;-63
2021/03/28 14:14:35;;;;;;;19.00;3.83;;;14.70;55.30;;;;;;4967879;28;20047;-64
2021/03/28 14:17:23;;;;;;;13.48;3.35;;;14.60;55.30;;;;;;4955643;28;20046;-63
2021/03/28 14:20:07;;;;;;;10.93;3.22;;;14.60;55.40;;;;;;4950155;28;20061;-63
2021/03/28 14:22:41;;;;;;;8.63;3.80;;;14.60;55.50;;;;;;4954100;28;20062;-63
2021/03/28 14:25:26;;;;;;;11.45;3.55;;;14.60;55.60;;;;;;4953806;28;20512;-64
2021/03/28 14:27:54;;;;;;;11.25;3.03;;;14.60;55.70;;;;;;4950424;28;20035;-63
2021/03/28 14:30:31;;;;;;;13.30;3.47;;;14.60;55.50;;;;;;4948461;28;20034;-63
2021/03/28 14:33:21;;;;;;;9.60;2.75;;;14.60;55.40;;;;;;4948958;28;20043;-63
2021/03/28 14:36:24;;;;;;;10.98;3.03;;;14.60;55.40;;;;;;4946531;28;20125;-64
2021/03/28 14:39:27;;;;;;;15.23;3.22;;;14.60;55.30;;;;;;4951874;28;20748;-64
2021/03/28 14:42:11;;;;;;;12.95;3.03;;;14.50;55.30;;;;;;4959692;28;20038;-64
2021/03/28 14:45:05;;;;;;;13.13;3.17;;;14.50;55.50;;;;;;4978545;28;20130;-64